sensor_id;sensor_type;location;lat;lon;timestamp;pressure;altitude;pressure_sealevel;temperature;humidity
46506;BME280;32220;49.808;9.968;2023-04-07T00:01:47;98915.88;;;10.41;49.32
46506;BME280;32220;49.808;9.968;2023-04-07T00:04:15;98902.47;;;10.30;49.72
46506;BME280;32220;49.808;9.968;2023-04-07T00:06:43;98929.13;;;10.41;49.04
46506;BME280;32220;49.808;9.968;2023-04-07T00:09:12;98933.66;;;10.39;49.00
46506;BME280;32220;49.808;9.968;2023-04-07T00:11:40;98916.28;;;10.35;50.72
46506;BME280;32220;49.808;9.968;2023-04-07T00:14:07;98907.94;;;10.27;51.19
46506;BME280;32220;49.808;9.968;2023-04-07T00:16:36;98918.50;;;10.27;51.96
46506;BME280;32220;49.808;9.968;2023-04-07T00:19:03;98912.59;;;10.24;51.49
46506;BME280;32220;49.808;9.968;2023-04-07T00:21:31;98916.44;;;10.18;52.25
46506;BME280;32220;49.808;9.968;2023-04-07T00:23:58;98902.03;;;10.08;53.26
46506;BME280;32220;49.808;9.968;2023-04-07T00:26:27;98911.28;;;10.01;52.86
46506;BME280;32220;49.808;9.968;2023-04-07T00:28:57;98916.91;;;9.95;52.85
46506;BME280;32220;49.808;9.968;2023-04-07T00:31:25;98911.16;;;9.88;52.70
46506;BME280;32220;49.808;9.968;2023-04-07T00:33:53;98918.50;;;9.83;53.21
46506;BME280;32220;49.808;9.968;2023-04-07T00:36:22;98899.75;;;9.72;53.91
46506;BME280;32220;49.808;9.968;2023-04-07T00:38:50;98872.78;;;9.51;54.13
46506;BME280;32220;49.808;9.968;2023-04-07T00:41:17;98902.66;;;9.67;54.66
46506;BME280;32220;49.808;9.968;2023-04-07T00:43:48;98900.38;;;9.61;55.89
46506;BME280;32220;49.808;9.968;2023-04-07T00:46:16;98903.38;;;9.55;55.23
46506;BME280;32220;49.808;9.968;2023-04-07T00:48:44;98898.44;;;9.49;56.23
46506;BME280;32220;49.808;9.968;2023-04-07T00:51:12;98888.97;;;9.45;57.53
46506;BME280;32220;49.808;9.968;2023-04-07T00:53:41;98892.81;;;9.40;57.01
46506;BME280;32220;49.808;9.968;2023-04-07T00:56:09;98871.53;;;9.27;58.70
46506;BME280;32220;49.808;9.968;2023-04-07T00:58:36;98873.06;;;9.31;58.05
46506;BME280;32220;49.808;9.968;2023-04-07T01:01:08;98876.81;;;9.27;58.55
46506;BME280;32220;49.808;9.968;2023-04-07T01:03:44;98877.66;;;9.27;59.14
46506;BME280;32220;49.808;9.968;2023-04-07T01:06:15;98877.06;;;9.22;58.88
46506;BME280;32220;49.808;9.968;2023-04-07T01:08:50;98868.47;;;9.19;60.97
46506;BME280;32220;49.808;9.968;2023-04-07T01:11:23;98879.19;;;9.16;59.92
46506;BME280;32220;49.808;9.968;2023-04-07T01:13:54;98871.38;;;9.14;60.73
46506;BME280;32220;49.808;9.968;2023-04-07T01:16:45;98851.44;;;9.09;64.71
46506;BME280;32220;49.808;9.968;2023-04-07T01:19:31;98851.75;;;9.02;66.77
46506;BME280;32220;49.808;9.968;2023-04-07T01:22:02;98853.66;;;9.00;66.74
46506;BME280;32220;49.808;9.968;2023-04-07T01:24:53;98866.09;;;8.98;65.92
46506;BME280;32220;49.808;9.968;2023-04-07T01:27:36;98854.84;;;8.95;67.21
46506;BME280;32220;49.808;9.968;2023-04-07T01:30:09;98853.56;;;8.86;68.02
46506;BME280;32220;49.808;9.968;2023-04-07T01:32:39;98866.00;;;8.84;67.00
46506;BME280;32220;49.808;9.968;2023-04-07T01:35:09;98865.41;;;8.79;66.73
46506;BME280;32220;49.808;9.968;2023-04-07T01:37:39;98862.94;;;8.76;68.21
46506;BME280;32220;49.808;9.968;2023-04-07T01:40:09;98849.91;;;8.73;70.01
46506;BME280;32220;49.808;9.968;2023-04-07T01:42:38;98847.44;;;8.70;72.51
46506;BME280;32220;49.808;9.968;2023-04-07T01:45:09;98831.50;;;8.56;71.74
46506;BME280;32220;49.808;9.968;2023-04-07T01:47:38;98848.63;;;8.64;72.03
46506;BME280;32220;49.808;9.968;2023-04-07T01:50:08;98855.59;;;8.65;71.88
46506;BME280;32220;49.808;9.968;2023-04-07T01:52:37;98860.97;;;8.64;71.23
46506;BME280;32220;49.808;9.968;2023-04-07T01:55:06;98875.13;;;8.63;70.30
46506;BME280;32220;49.808;9.968;2023-04-07T01:57:39;98868.97;;;8.62;69.92
46506;BME280;32220;49.808;9.968;2023-04-07T02:00:15;98877.75;;;8.63;70.03
46506;BME280;32220;49.808;9.968;2023-04-07T02:02:48;98876.22;;;8.59;69.47
46506;BME280;32220;49.808;9.968;2023-04-07T02:05:19;98877.75;;;8.63;68.39
46506;BME280;32220;49.808;9.968;2023-04-07T02:07:51;98879.47;;;8.64;68.23
46506;BME280;32220;49.808;9.968;2023-04-07T02:10:22;98875.97;;;8.63;67.84
46506;BME280;32220;49.808;9.968;2023-04-07T02:12:53;98875.13;;;8.63;68.06
46506;BME280;32220;49.808;9.968;2023-04-07T02:15:25;98876.13;;;8.60;67.47
46506;BME280;32220;49.808;9.968;2023-04-07T02:17:55;98873.56;;;8.59;67.50
46506;BME280;32220;49.808;9.968;2023-04-07T02:20:23;98874.66;;;8.55;67.80
46506;BME280;32220;49.808;9.968;2023-04-07T02:22:52;98876.44;;;8.54;67.69
46506;BME280;32220;49.808;9.968;2023-04-07T02:25:23;98873.06;;;8.52;68.41
46506;BME280;32220;49.808;9.968;2023-04-07T02:27:54;98862.91;;;8.45;68.43
46506;BME280;32220;49.808;9.968;2023-04-07T02:30:24;98862.13;;;8.43;68.49
46506;BME280;32220;49.808;9.968;2023-04-07T02:32:53;98846.56;;;8.38;69.02
46506;BME280;32220;49.808;9.968;2023-04-07T02:35:21;98857.88;;;8.40;69.34
46506;BME280;32220;49.808;9.968;2023-04-07T02:37:49;98852.69;;;8.39;69.28
46506;BME280;32220;49.808;9.968;2023-04-07T02:40:17;98848.50;;;8.35;69.70
46506;BME280;32220;49.808;9.968;2023-04-07T02:42:45;98830.56;;;8.24;69.93
46506;BME280;32220;49.808;9.968;2023-04-07T02:45:13;98843.22;;;8.35;70.09
46506;BME280;32220;49.808;9.968;2023-04-07T02:47:43;98844.94;;;8.36;69.76
46506;BME280;32220;49.808;9.968;2023-04-07T02:50:11;98829.56;;;8.26;70.97
46506;BME280;32220;49.808;9.968;2023-04-07T02:52:38;98827.16;;;8.22;70.58
46506;BME280;32220;49.808;9.968;2023-04-07T02:55:11;98825.38;;;8.22;70.17
46506;BME280;32220;49.808;9.968;2023-04-07T02:57:40;98826.66;;;8.15;70.13
46506;BME280;32220;49.808;9.968;2023-04-07T03:00:20;98840.28;;;8.23;70.71
46506;BME280;32220;49.808;9.968;2023-04-07T03:03:00;98811.13;;;8.09;70.93
46506;BME280;32220;49.808;9.968;2023-04-07T03:05:31;98830.81;;;8.19;70.49
46506;BME280;32220;49.808;9.968;2023-04-07T03:08:01;98828.16;;;8.19;71.09
46506;BME280;32220;49.808;9.968;2023-04-07T03:10:29;98828.16;;;8.19;70.58
46506;BME280;32220;49.808;9.968;2023-04-07T03:12:57;98821.19;;;8.18;71.30
46506;BME280;32220;49.808;9.968;2023-04-07T03:15:25;98826.47;;;8.18;70.52
46506;BME280;32220;49.808;9.968;2023-04-07T03:17:53;98822.13;;;8.17;70.55
46506;BME280;32220;49.808;9.968;2023-04-07T03:20:22;98802.53;;;8.06;70.70
46506;BME280;32220;49.808;9.968;2023-04-07T03:22:50;98818.75;;;8.15;70.38
46506;BME280;32220;49.808;9.968;2023-04-07T03:25:22;98817.63;;;8.19;70.01
46506;BME280;32220;49.808;9.968;2023-04-07T03:27:51;98813.19;;;8.20;70.35
46506;BME280;32220;49.808;9.968;2023-04-07T03:30:19;98790.03;;;8.09;71.44
46506;BME280;32220;49.808;9.968;2023-04-07T03:32:47;98809.56;;;8.22;71.08
46506;BME280;32220;49.808;9.968;2023-04-07T03:35:16;98788.38;;;8.24;73.92
46506;BME280;32220;49.808;9.968;2023-04-07T03:37:45;98798.91;;;8.24;74.33
46506;BME280;32220;49.808;9.968;2023-04-07T03:40:16;98799.00;;;8.22;75.40
46506;BME280;32220;49.808;9.968;2023-04-07T03:42:45;98782.75;;;8.14;76.16
46506;BME280;32220;49.808;9.968;2023-04-07T03:45:15;98793.97;;;8.18;75.81
46506;BME280;32220;49.808;9.968;2023-04-07T03:47:47;98794.81;;;8.18;74.99
46506;BME280;32220;49.808;9.968;2023-04-07T03:50:16;98753.94;;;7.94;74.69
46506;BME280;32220;49.808;9.968;2023-04-07T03:52:55;98796.34;;;8.22;74.38
46506;BME280;32220;49.808;9.968;2023-04-07T03:55:26;98792.94;;;8.20;75.35
46506;BME280;32220;49.808;9.968;2023-04-07T03:57:59;98786.91;;;8.18;75.79
46506;BME280;32220;49.808;9.968;2023-04-07T04:00:31;98792.94;;;8.20;75.79
46506;BME280;32220;49.808;9.968;2023-04-07T04:03:07;98800.84;;;8.20;75.08
46506;BME280;32220;49.808;9.968;2023-04-07T04:05:38;98786.13;;;8.16;74.95
46506;BME280;32220;49.808;9.968;2023-04-07T04:08:11;98798.22;;;8.20;74.74
46506;BME280;32220;49.808;9.968;2023-04-07T04:10:40;98794.72;;;8.20;74.71
46506;BME280;32220;49.808;9.968;2023-04-07T04:13:08;98799.00;;;8.22;75.09
46506;BME280;32220;49.808;9.968;2023-04-07T04:15:37;98777.84;;;8.07;74.55
46506;BME280;32220;49.808;9.968;2023-04-07T04:18:10;98800.78;;;8.22;74.80
46506;BME280;32220;49.808;9.968;2023-04-07T04:20:39;98792.94;;;8.20;74.86
46506;BME280;32220;49.808;9.968;2023-04-07T04:23:07;98788.53;;;8.21;74.80
46506;BME280;32220;49.808;9.968;2023-04-07T04:25:37;98799.00;;;8.22;74.68
46506;BME280;32220;49.808;9.968;2023-04-07T04:28:09;98791.41;;;8.16;74.48
46506;BME280;32220;49.808;9.968;2023-04-07T04:30:37;98798.22;;;8.20;73.94
46506;BME280;32220;49.808;9.968;2023-04-07T04:33:05;98726.69;;;7.78;73.89
46506;BME280;32220;49.808;9.968;2023-04-07T04:35:40;98793.97;;;8.18;74.35
46506;BME280;32220;49.808;9.968;2023-04-07T04:38:11;98790.56;;;8.16;74.73
46506;BME280;32220;49.808;9.968;2023-04-07T04:40:46;98795.84;;;8.16;74.26
46506;BME280;32220;49.808;9.968;2023-04-07T04:43:16;98794.16;;;8.15;74.19
46506;BME280;32220;49.808;9.968;2023-04-07T04:45:44;98796.88;;;8.13;74.80
46506;BME280;32220;49.808;9.968;2023-04-07T04:48:14;98789.88;;;8.12;75.36
46506;BME280;32220;49.808;9.968;2023-04-07T04:50:42;98793.44;;;8.11;76.70
46506;BME280;32220;49.808;9.968;2023-04-07T04:53:12;98795.47;;;8.06;75.41
46506;BME280;32220;49.808;9.968;2023-04-07T04:55:56;98799.88;;;8.06;75.72
46506;BME280;32220;49.808;9.968;2023-04-07T04:58:45;98792.06;;;8.04;75.57
46506;BME280;32220;49.808;9.968;2023-04-07T05:01:21;98782.00;;;7.95;75.74
46506;BME280;32220;49.808;9.968;2023-04-07T05:04:03;98799.03;;;8.05;75.43
46506;BME280;32220;49.808;9.968;2023-04-07T05:06:30;98782.53;;;8.02;75.18
46506;BME280;32220;49.808;9.968;2023-04-07T05:09:04;98789.88;;;8.12;75.44
46506;BME280;32220;49.808;9.968;2023-04-07T05:11:41;98790.72;;;8.13;74.93
46506;BME280;32220;49.808;9.968;2023-04-07T05:14:10;98771.81;;;8.05;75.01
46506;BME280;32220;49.808;9.968;2023-04-07T05:16:42;98791.41;;;8.16;75.43
46506;BME280;32220;49.808;9.968;2023-04-07T05:19:16;98798.06;;;8.23;75.73
46506;BME280;32220;49.808;9.968;2023-04-07T05:21:45;98796.28;;;8.24;75.51
46506;BME280;32220;49.808;9.968;2023-04-07T05:24:13;98790.75;;;8.28;75.96
46506;BME280;32220;49.808;9.968;2023-04-07T05:26:44;98790.66;;;8.30;75.12
46506;BME280;32220;49.808;9.968;2023-04-07T05:29:12;98777.88;;;8.22;75.46
46506;BME280;32220;49.808;9.968;2023-04-07T05:31:40;98797.91;;;8.26;75.60
46506;BME280;32220;49.808;9.968;2023-04-07T05:34:12;98792.63;;;8.26;75.91
46506;BME280;32220;49.808;9.968;2023-04-07T05:36:45;98791.47;;;8.32;76.62
46506;BME280;32220;49.808;9.968;2023-04-07T05:39:13;98789.59;;;8.34;76.61
46506;BME280;32220;49.808;9.968;2023-04-07T05:41:44;98792.25;;;8.34;76.91
46506;BME280;32220;49.808;9.968;2023-04-07T05:44:13;98798.28;;;8.36;76.89
46506;BME280;32220;49.808;9.968;2023-04-07T05:46:42;98790.28;;;8.38;77.54
46506;BME280;32220;49.808;9.968;2023-04-07T05:49:10;98771.53;;;8.26;77.55
46506;BME280;32220;49.808;9.968;2023-04-07T05:51:38;98787.47;;;8.41;77.88
46506;BME280;32220;49.808;9.968;2023-04-07T05:54:10;98782.03;;;8.44;78.39
46506;BME280;32220;49.808;9.968;2023-04-07T05:56:38;98793.19;;;8.49;77.87
46506;BME280;32220;49.808;9.968;2023-04-07T05:59:08;98770.03;;;8.38;77.61
46506;BME280;32220;49.808;9.968;2023-04-07T06:01:36;98771.53;;;8.42;77.82
46506;BME280;32220;49.808;9.968;2023-04-07T06:04:04;98796.84;;;8.62;77.60
46506;BME280;32220;49.808;9.968;2023-04-07T06:06:31;98797.44;;;8.67;77.27
46506;BME280;32220;49.808;9.968;2023-04-07T06:08:59;98798.13;;;8.71;77.52
46506;BME280;32220;49.808;9.968;2023-04-07T06:11:27;98802.22;;;8.76;77.46
46506;BME280;32220;49.808;9.968;2023-04-07T06:13:55;98801.09;;;8.80;77.27
46506;BME280;32220;49.808;9.968;2023-04-07T06:16:25;98806.13;;;8.85;76.91
46506;BME280;32220;49.808;9.968;2023-04-07T06:18:52;98797.97;;;8.89;77.04
46506;BME280;32220;49.808;9.968;2023-04-07T06:21:20;98794.09;;;8.95;76.89
46506;BME280;32220;49.808;9.968;2023-04-07T06:23:48;98794.03;;;8.96;76.40
46506;BME280;32220;49.808;9.968;2023-04-07T06:26:16;98797.75;;;9.08;76.18
46506;BME280;32220;49.808;9.968;2023-04-07T06:28:44;98800.78;;;9.16;75.84
46506;BME280;32220;49.808;9.968;2023-04-07T06:31:12;98792.13;;;9.14;75.83
46506;BME280;32220;49.808;9.968;2023-04-07T06:33:42;98805.47;;;9.27;75.68
46506;BME280;32220;49.808;9.968;2023-04-07T06:36:10;98803.78;;;9.26;75.46
46506;BME280;32220;49.808;9.968;2023-04-07T06:38:38;98814.75;;;9.34;75.06
46506;BME280;32220;49.808;9.968;2023-04-07T06:41:06;98812.50;;;9.42;74.80
46506;BME280;32220;49.808;9.968;2023-04-07T06:43:36;98819.13;;;9.49;74.53
46506;BME280;32220;49.808;9.968;2023-04-07T06:46:06;98797.16;;;9.49;74.20
46506;BME280;32220;49.808;9.968;2023-04-07T06:48:34;98805.75;;;9.66;75.05
46506;BME280;32220;49.808;9.968;2023-04-07T06:51:04;98814.09;;;9.75;74.69
46506;BME280;32220;49.808;9.968;2023-04-07T06:53:31;98808.25;;;9.84;74.19
46506;BME280;32220;49.808;9.968;2023-04-07T06:56:03;98793.41;;;9.81;73.90
46506;BME280;32220;49.808;9.968;2023-04-07T06:58:31;98799.84;;;9.91;73.47
46506;BME280;32220;49.808;9.968;2023-04-07T07:01:00;98794.47;;;9.93;73.30
46506;BME280;32220;49.808;9.968;2023-04-07T07:03:28;98774.63;;;9.86;73.30
46506;BME280;32220;49.808;9.968;2023-04-07T07:05:57;98752.81;;;9.82;73.65
46506;BME280;32220;49.808;9.968;2023-04-07T07:08:40;98806.03;;;10.20;73.47
46506;BME280;32220;49.808;9.968;2023-04-07T07:11:08;98801.34;;;10.25;73.59
46506;BME280;32220;49.808;9.968;2023-04-07T07:13:36;98798.28;;;10.31;73.27
46506;BME280;32220;49.808;9.968;2023-04-07T07:16:04;98801.03;;;10.30;73.03
46506;BME280;32220;49.808;9.968;2023-04-07T07:18:32;98803.75;;;10.28;72.99
46506;BME280;32220;49.808;9.968;2023-04-07T07:21:00;98803.75;;;10.28;73.16
46506;BME280;32220;49.808;9.968;2023-04-07T07:23:28;98788.28;;;10.22;73.48
46506;BME280;32220;49.808;9.968;2023-04-07T07:25:57;98801.50;;;10.36;73.35
46506;BME280;32220;49.808;9.968;2023-04-07T07:28:25;98804.69;;;10.41;73.74
46506;BME280;32220;49.808;9.968;2023-04-07T07:30:54;98806.59;;;10.39;73.25
46506;BME280;32220;49.808;9.968;2023-04-07T07:33:22;98797.03;;;10.51;73.61
46506;BME280;32220;49.808;9.968;2023-04-07T07:35:49;98808.84;;;10.60;72.84
46506;BME280;32220;49.808;9.968;2023-04-07T07:38:17;98759.53;;;10.30;71.67
46506;BME280;32220;49.808;9.968;2023-04-07T07:40:45;98791.25;;;10.59;71.97
46506;BME280;32220;49.808;9.968;2023-04-07T07:43:15;98809.69;;;10.74;72.05
46506;BME280;32220;49.808;9.968;2023-04-07T07:45:43;98818.13;;;10.94;72.27
46506;BME280;32220;49.808;9.968;2023-04-07T07:48:11;98823.69;;;11.03;71.42
46506;BME280;32220;49.808;9.968;2023-04-07T07:50:38;98819.88;;;11.07;70.59
46506;BME280;32220;49.808;9.968;2023-04-07T07:53:07;98829.44;;;11.10;70.05
46506;BME280;32220;49.808;9.968;2023-04-07T07:55:35;98827.13;;;11.18;69.89
46506;BME280;32220;49.808;9.968;2023-04-07T07:58:03;98829.50;;;11.23;68.55
46506;BME280;32220;49.808;9.968;2023-04-07T08:00:33;98804.69;;;11.24;69.82
46506;BME280;32220;49.808;9.968;2023-04-07T08:03:00;98830.56;;;11.60;69.87
46506;BME280;32220;49.808;9.968;2023-04-07T08:05:28;98827.94;;;11.72;69.34
46506;BME280;32220;49.808;9.968;2023-04-07T08:07:56;98841.78;;;11.90;67.99
46506;BME280;32220;49.808;9.968;2023-04-07T08:10:24;98845.19;;;12.05;67.99
46506;BME280;32220;49.808;9.968;2023-04-07T08:12:52;98848.28;;;12.11;66.79
46506;BME280;32220;49.808;9.968;2023-04-07T08:15:20;98853.25;;;12.16;66.19
46506;BME280;32220;49.808;9.968;2023-04-07T08:17:50;98843.94;;;12.23;67.35
46506;BME280;32220;49.808;9.968;2023-04-07T08:20:18;98852.00;;;12.34;66.43
46506;BME280;32220;49.808;9.968;2023-04-07T08:22:46;98857.06;;;12.37;65.58
46506;BME280;32220;49.808;9.968;2023-04-07T08:25:14;98863.69;;;12.44;65.30
46506;BME280;32220;49.808;9.968;2023-04-07T08:27:42;98863.69;;;12.44;64.52
46506;BME280;32220;49.808;9.968;2023-04-07T08:30:10;98866.63;;;12.52;65.07
46506;BME280;32220;49.808;9.968;2023-04-07T08:32:39;98854.63;;;12.72;64.56
46506;BME280;32220;49.808;9.968;2023-04-07T08:35:09;98859.72;;;12.99;64.51
46506;BME280;32220;49.808;9.968;2023-04-07T08:37:38;98854.38;;;13.24;63.95
46506;BME280;32220;49.808;9.968;2023-04-07T08:40:06;98853.97;;;13.42;62.72
46506;BME280;32220;49.808;9.968;2023-04-07T08:42:40;98871.22;;;13.60;61.77
46506;BME280;32220;49.808;9.968;2023-04-07T08:45:08;98860.50;;;13.73;61.21
46506;BME280;32220;49.808;9.968;2023-04-07T08:47:39;98870.34;;;13.72;60.80
46506;BME280;32220;49.808;9.968;2023-04-07T08:50:10;98870.09;;;13.75;60.85
46506;BME280;32220;49.808;9.968;2023-04-07T08:52:42;98884.34;;;13.74;59.20
46506;BME280;32220;49.808;9.968;2023-04-07T08:55:11;98868.50;;;13.73;59.90
46506;BME280;32220;49.808;9.968;2023-04-07T08:57:40;98859.00;;;13.81;59.22
46506;BME280;32220;49.808;9.968;2023-04-07T09:00:09;98889.63;;;14.33;58.41
46506;BME280;32220;49.808;9.968;2023-04-07T09:02:40;98889.44;;;15.03;57.07
46506;BME280;32220;49.808;9.968;2023-04-07T09:05:12;98901.34;;;15.53;55.54
46506;BME280;32220;49.808;9.968;2023-04-07T09:07:40;98904.97;;;15.52;54.37
46506;BME280;32220;49.808;9.968;2023-04-07T09:10:09;98897.09;;;15.62;54.07
46506;BME280;32220;49.808;9.968;2023-04-07T09:12:37;98912.03;;;15.85;53.18
46506;BME280;32220;49.808;9.968;2023-04-07T09:15:06;98909.91;;;16.32;53.51
46506;BME280;32220;49.808;9.968;2023-04-07T09:17:34;98911.25;;;17.48;52.24
46506;BME280;32220;49.808;9.968;2023-04-07T09:20:04;98923.16;;;18.61;48.81
46506;BME280;32220;49.808;9.968;2023-04-07T09:22:39;98938.06;;;19.20;46.19
46506;BME280;32220;49.808;9.968;2023-04-07T09:25:15;98928.44;;;19.54;46.60
46506;BME280;32220;49.808;9.968;2023-04-07T09:27:53;98944.28;;;20.28;43.77
46506;BME280;32220;49.808;9.968;2023-04-07T09:30:22;98940.25;;;20.68;44.18
46506;BME280;32220;49.808;9.968;2023-04-07T09:32:49;98930.13;;;21.13;42.46
46506;BME280;32220;49.808;9.968;2023-04-07T09:35:17;98957.75;;;22.00;39.71
46506;BME280;32220;49.808;9.968;2023-04-07T09:38:02;98975.84;;;22.97;37.17
46506;BME280;32220;49.808;9.968;2023-04-07T09:40:30;98962.00;;;23.47;37.97
46506;BME280;32220;49.808;9.968;2023-04-07T09:42:58;98957.19;;;23.73;36.96
46506;BME280;32220;49.808;9.968;2023-04-07T09:45:27;98954.63;;;23.33;38.07
46506;BME280;32220;49.808;9.968;2023-04-07T09:47:55;98940.06;;;22.54;37.24
46506;BME280;32220;49.808;9.968;2023-04-07T09:50:32;98949.66;;;22.00;37.62
46506;BME280;32220;49.808;9.968;2023-04-07T09:53:03;98944.75;;;22.03;38.30
46506;BME280;32220;49.808;9.968;2023-04-07T09:55:31;98948.19;;;21.63;37.88
46506;BME280;32220;49.808;9.968;2023-04-07T09:58:00;98948.75;;;21.07;38.45
46506;BME280;32220;49.808;9.968;2023-04-07T10:00:28;98949.00;;;20.26;38.95
46506;BME280;32220;49.808;9.968;2023-04-07T10:02:56;98942.88;;;19.53;39.67
46506;BME280;32220;49.808;9.968;2023-04-07T10:05:24;98928.41;;;18.99;41.16
46506;BME280;32220;49.808;9.968;2023-04-07T10:07:52;98931.91;;;18.53;42.20
46506;BME280;32220;49.808;9.968;2023-04-07T10:10:22;98919.78;;;18.40;43.51
46506;BME280;32220;49.808;9.968;2023-04-07T10:12:52;98928.81;;;18.19;43.55
46506;BME280;32220;49.808;9.968;2023-04-07T10:15:21;98919.94;;;18.00;44.03
46506;BME280;32220;49.808;9.968;2023-04-07T10:17:50;98916.13;;;17.83;44.09
46506;BME280;32220;49.808;9.968;2023-04-07T10:20:18;98914.38;;;17.63;44.54
46506;BME280;32220;49.808;9.968;2023-04-07T10:22:48;98910.25;;;17.39;45.26
46506;BME280;32220;49.808;9.968;2023-04-07T10:25:21;98872.84;;;17.09;46.02
46506;BME280;32220;49.808;9.968;2023-04-07T10:27:52;98907.81;;;17.17;45.49
46506;BME280;32220;49.808;9.968;2023-04-07T10:30:24;98915.22;;;17.04;45.26
46506;BME280;32220;49.808;9.968;2023-04-07T10:32:53;98908.69;;;16.97;45.10
46506;BME280;32220;49.808;9.968;2023-04-07T10:35:21;98890.91;;;17.26;45.51
46506;BME280;32220;49.808;9.968;2023-04-07T10:38:08;98918.41;;;18.16;44.04
46506;BME280;32220;49.808;9.968;2023-04-07T10:40:40;98928.91;;;18.76;42.30
46506;BME280;32220;49.808;9.968;2023-04-07T10:43:09;98944.72;;;19.43;41.62
46506;BME280;32220;49.808;9.968;2023-04-07T10:45:56;98952.34;;;20.64;39.74
46506;BME280;32220;49.808;9.968;2023-04-07T10:48:26;98950.06;;;21.29;39.31
46506;BME280;32220;49.808;9.968;2023-04-07T10:51:19;98954.78;;;21.77;38.83
46506;BME280;32220;49.808;9.968;2023-04-07T10:57:05;98968.56;;;22.97;36.30
46506;BME280;32220;49.808;9.968;2023-04-07T10:59:37;98977.66;;;22.64;35.29
46506;BME280;32220;49.808;9.968;2023-04-07T11:02:33;98966.84;;;21.99;36.04
46506;BME280;32220;49.808;9.968;2023-04-07T11:05:01;98958.78;;;21.65;37.22
46506;BME280;32220;49.808;9.968;2023-04-07T11:07:47;98954.53;;;21.54;38.18
46506;BME280;32220;49.808;9.968;2023-04-07T11:10:15;98960.44;;;21.49;37.63
46506;BME280;32220;49.808;9.968;2023-04-07T11:12:59;98948.13;;;21.47;38.21
46506;BME280;32220;49.808;9.968;2023-04-07T11:15:27;98938.56;;;21.19;37.56
46506;BME280;32220;49.808;9.968;2023-04-07T11:18:13;98953.19;;;20.90;37.35
46506;BME280;32220;49.808;9.968;2023-04-07T11:20:46;98964.69;;;20.49;37.71
46506;BME280;32220;49.808;9.968;2023-04-07T11:23:15;98954.66;;;19.88;37.98
46506;BME280;32220;49.808;9.968;2023-04-07T11:25:44;98943.38;;;19.29;39.04
46506;BME280;32220;49.808;9.968;2023-04-07T11:28:14;98953.84;;;18.95;39.66
46506;BME280;32220;49.808;9.968;2023-04-07T11:30:48;98943.44;;;18.73;40.21
46506;BME280;32220;49.808;9.968;2023-04-07T11:33:18;98891.84;;;18.33;41.38
46506;BME280;32220;49.808;9.968;2023-04-07T11:35:47;98908.75;;;18.43;41.74
46506;BME280;32220;49.808;9.968;2023-04-07T11:38:16;98933.31;;;18.38;41.41
46506;BME280;32220;49.808;9.968;2023-04-07T11:40:45;98933.59;;;18.35;41.54
46506;BME280;32220;49.808;9.968;2023-04-07T11:43:19;98928.81;;;18.39;42.28
46506;BME280;32220;49.808;9.968;2023-04-07T11:46:05;98924.97;;;18.51;41.68
46506;BME280;32220;49.808;9.968;2023-04-07T11:48:34;98917.19;;;18.67;42.38
46506;BME280;32220;49.808;9.968;2023-04-07T11:51:02;98939.13;;;18.99;41.73
46506;BME280;32220;49.808;9.968;2023-04-07T11:53:30;98934.88;;;19.34;41.38
46506;BME280;32220;49.808;9.968;2023-04-07T11:56:03;98918.06;;;19.32;39.88
46506;BME280;32220;49.808;9.968;2023-04-07T11:58:33;98947.25;;;19.45;40.65
46506;BME280;32220;49.808;9.968;2023-04-07T12:01:03;98943.50;;;19.37;40.59
46506;BME280;32220;49.808;9.968;2023-04-07T12:03:34;98951.19;;;19.23;41.40
46506;BME280;32220;49.808;9.968;2023-04-07T12:06:03;98943.91;;;19.06;41.14
46506;BME280;32220;49.808;9.968;2023-04-07T12:08:39;98932.69;;;18.83;41.02
46506;BME280;32220;49.808;9.968;2023-04-07T12:11:07;98935.69;;;18.70;41.56
46506;BME280;32220;49.808;9.968;2023-04-07T12:13:37;98949.69;;;18.54;41.11
46506;BME280;32220;49.808;9.968;2023-04-07T12:16:06;98941.50;;;18.37;42.18
46506;BME280;32220;49.808;9.968;2023-04-07T12:18:34;98941.22;;;18.20;41.69
46506;BME280;32220;49.808;9.968;2023-04-07T12:21:03;98941.50;;;18.08;42.00
46506;BME280;32220;49.808;9.968;2023-04-07T12:23:31;98938.84;;;17.98;42.82
46506;BME280;32220;49.808;9.968;2023-04-07T12:25:59;98914.72;;;17.79;42.80
46506;BME280;32220;49.808;9.968;2023-04-07T12:28:27;98928.84;;;17.90;43.28
46506;BME280;32220;49.808;9.968;2023-04-07T12:30:57;98929.38;;;17.94;43.66
46506;BME280;32220;49.808;9.968;2023-04-07T12:33:25;98928.69;;;18.02;43.61
46506;BME280;32220;49.808;9.968;2023-04-07T12:35:53;98924.75;;;18.15;43.66
46506;BME280;32220;49.808;9.968;2023-04-07T12:38:21;98886.38;;;18.15;43.64
46506;BME280;32220;49.808;9.968;2023-04-07T12:40:49;98920.56;;;18.79;42.77
46506;BME280;32220;49.808;9.968;2023-04-07T12:43:17;98908.03;;;19.34;42.55
46506;BME280;32220;49.808;9.968;2023-04-07T12:45:45;98921.41;;;20.24;40.99
46506;BME280;32220;49.808;9.968;2023-04-07T12:48:14;98952.31;;;21.41;38.13
46506;BME280;32220;49.808;9.968;2023-04-07T12:50:44;98946.31;;;22.79;37.94
46506;BME280;32220;49.808;9.968;2023-04-07T12:53:12;98956.66;;;24.54;35.74
46506;BME280;32220;49.808;9.968;2023-04-07T12:55:40;98986.28;;;26.75;30.83
46506;BME280;32220;49.808;9.968;2023-04-07T12:58:07;98987.41;;;27.08;30.28
46506;BME280;32220;49.808;9.968;2023-04-07T13:00:35;98994.63;;;26.95;28.86
46506;BME280;32220;49.808;9.968;2023-04-07T13:03:03;98998.66;;;26.56;28.75
46506;BME280;32220;49.808;9.968;2023-04-07T13:05:33;98989.78;;;26.11;29.21
46506;BME280;32220;49.808;9.968;2023-04-07T13:08:00;98979.69;;;25.55;30.01
46506;BME280;32220;49.808;9.968;2023-04-07T13:10:28;98972.31;;;25.34;32.00
46506;BME280;32220;49.808;9.968;2023-04-07T13:12:56;98971.53;;;25.25;31.62
46506;BME280;32220;49.808;9.968;2023-04-07T13:15:24;98981.34;;;25.12;30.82
46506;BME280;32220;49.808;9.968;2023-04-07T13:17:53;98967.41;;;25.00;31.86
46506;BME280;32220;49.808;9.968;2023-04-07T13:20:21;98963.81;;;24.85;30.81
46506;BME280;32220;49.808;9.968;2023-04-07T13:22:54;98975.03;;;24.82;31.24
46506;BME280;32220;49.808;9.968;2023-04-07T13:25:22;98966.53;;;24.47;30.63